createdAt,value
2019-01-31T00:00:48.962Z,85.86
2019-01-31T00:01:48.923Z,85.34
2019-01-31T00:02:48.929Z,86.17
2019-01-31T00:03:48.892Z,85.75
2019-01-31T00:04:48.882Z,84.09
2019-01-31T00:05:48.876Z,83.99
2019-01-31T00:06:48.859Z,83.16
2019-01-31T00:07:48.942Z,82.22
2019-01-31T00:08:48.871Z,81.81
2019-01-31T00:09:48.826Z,82.12
2019-01-31T00:10:48.827Z,82.43
2019-01-31T00:11:48.848Z,82.32
2019-01-31T00:12:48.883Z,82.53
2019-01-31T00:13:48.785Z,82.53
2019-01-31T00:14:48.768Z,83.16
2019-01-31T00:15:48.815Z,82.22
2019-01-31T00:16:48.779Z,82.46
2019-01-31T00:17:48.754Z,82.22
2019-01-31T00:18:48.773Z,82.15
2019-01-31T00:19:48.716Z,82.78
2019-01-31T00:20:48.699Z,82.68
2019-01-31T00:21:48.688Z,82.46
2019-01-31T00:22:48.676Z,82.57
2019-01-31T00:23:48.684Z,81.84
2019-01-31T00:24:48.651Z,81.84
2019-01-31T00:25:48.668Z,82.15
2019-01-31T00:26:48.661Z,81.84
2019-01-31T00:27:48.627Z,81.74
2019-01-31T00:28:48.742Z,81.74
2019-01-31T00:29:48.840Z,81.53
2019-01-31T00:30:48.644Z,81.53
2019-01-31T00:31:48.587Z,81.12
2019-01-31T00:32:48.583Z,81.12
2019-01-31T00:33:48.563Z,81.32
2019-01-31T00:34:48.620Z,81.81
2019-01-31T00:35:48.680Z,81.32
2019-01-31T00:36:48.694Z,82.26
2019-01-31T00:37:48.543Z,82.26
2019-01-31T00:38:56.645Z,83.09
2019-01-31T00:39:49.499Z,84.86
2019-01-31T00:40:48.525Z,84.55
2019-01-31T00:41:49.121Z,85.17
2019-01-31T00:42:48.456Z,85.49
2019-01-31T00:43:48.494Z,86.00
2019-01-31T00:44:48.480Z,86.00
2019-01-31T00:45:48.820Z,86.73
2019-01-31T00:46:48.504Z,86.00
2019-01-31T00:47:48.442Z,85.90
2019-01-31T00:48:48.715Z,86.21
2019-01-31T00:49:48.548Z,86.32
2019-01-31T00:50:48.459Z,86.11
2019-01-31T00:51:48.438Z,86.42
2019-01-31T00:52:48.429Z,86.00
2019-01-31T00:53:48.410Z,85.59
2019-01-31T00:54:48.363Z,86.00
2019-01-31T00:55:48.339Z,85.59
2019-01-31T00:56:48.315Z,85.42
2019-01-31T00:57:48.297Z,86.15
2019-01-31T00:58:48.501Z,85.83
2019-01-31T00:59:48.350Z,85.28
2019-01-31T01:00:48.282Z,86.15
2019-01-31T01:01:48.340Z,85.63
2019-01-31T01:02:48.253Z,85.69
2019-01-31T01:03:48.236Z,85.63
2019-01-31T01:04:48.250Z,85.90
2019-01-31T01:05:48.250Z,85.38
2019-01-31T01:06:48.213Z,85.21
2019-01-31T01:07:48.293Z,85.21
2019-01-31T01:08:48.169Z,86.04
2019-01-31T01:09:48.277Z,85.73
2019-01-31T01:10:48.280Z,85.38
2019-01-31T01:11:48.166Z,85.83
2019-01-31T01:12:48.208Z,85.63
2019-01-31T01:13:48.237Z,86.35
2019-01-31T01:14:48.122Z,86.00
2019-01-31T01:15:48.122Z,86.77
2019-01-31T01:16:48.270Z,87.04
2019-01-31T01:17:48.077Z,86.94
2019-01-31T01:18:48.138Z,86.73
2019-01-31T01:19:48.067Z,86.73
2019-01-31T01:20:48.199Z,86.25
2019-01-31T01:21:48.050Z,86.52
2019-01-31T01:22:48.046Z,86.67
2019-01-31T01:23:48.116Z,86.46
2019-01-31T01:24:48.091Z,86.25
2019-01-31T01:25:48.029Z,86.04
2019-01-31T01:26:47.989Z,86.25
2019-01-31T01:27:48.053Z,86.25
2019-01-31T01:28:48.119Z,85.94
2019-01-31T01:29:48.091Z,86.81
2019-01-31T01:30:48.042Z,87.02
2019-01-31T01:31:47.944Z,86.50
2019-01-31T01:32:47.910Z,86.40
2019-01-31T01:33:48.010Z,86.19
2019-01-31T01:34:48.151Z,84.94
2019-01-31T01:35:47.940Z,85.14
2019-01-31T01:36:47.955Z,84.63
2019-01-31T01:37:47.887Z,84.42
2019-01-31T01:38:47.884Z,84.63
2019-01-31T01:39:47.989Z,82.96
2019-01-31T01:40:47.894Z,83.69
2019-01-31T01:41:47.944Z,83.90
2019-01-31T01:42:47.801Z,84.42
2019-01-31T01:43:47.822Z,84.11
2019-01-31T01:44:47.829Z,84.94
2019-01-31T01:45:48.027Z,84.45
2019-01-31T01:46:47.771Z,85.46
2019-01-31T01:47:47.753Z,84.94
2019-01-31T01:48:47.850Z,85.25
2019-01-31T01:49:47.748Z,84.42
2019-01-31T01:50:47.719Z,85.29
2019-01-31T01:51:47.822Z,84.87
2019-01-31T01:52:47.789Z,85.29
2019-01-31T01:53:47.706Z,85.56
2019-01-31T01:54:47.880Z,85.81
2019-01-31T01:55:47.795Z,85.19
2019-01-31T01:56:47.705Z,85.19
2019-01-31T01:57:47.680Z,85.29
2019-01-31T01:58:47.674Z,86.33
2019-01-31T01:59:47.688Z,86.22
2019-01-31T02:00:47.672Z,85.02
2019-01-31T02:01:47.623Z,85.22
2019-01-31T02:02:47.703Z,85.02
2019-01-31T02:03:47.643Z,85.02
2019-01-31T02:04:47.678Z,84.91
2019-01-31T02:05:47.666Z,84.50
2019-01-31T02:06:47.631Z,84.70
2019-01-31T02:07:47.550Z,84.39
2019-01-31T02:08:47.954Z,85.22
2019-01-31T02:09:47.553Z,85.02
2019-01-31T02:10:47.547Z,84.91
2019-01-31T02:11:47.609Z,84.50
2019-01-31T02:12:47.633Z,83.66
2019-01-31T02:13:47.688Z,83.45
2019-01-31T02:14:47.667Z,83.56
2019-01-31T02:15:47.703Z,84.91
2019-01-31T02:16:47.457Z,83.97
2019-01-31T02:17:47.600Z,83.76
2019-01-31T02:18:47.683Z,83.14
2019-01-31T02:19:47.424Z,83.66
2019-01-31T02:20:47.400Z,83.56
2019-01-31T02:21:47.549Z,84.60
2019-01-31T02:22:47.691Z,85.12
2019-01-31T02:23:47.410Z,85.05
2019-01-31T02:24:47.571Z,84.64
2019-01-31T02:25:47.385Z,85.16
2019-01-31T02:26:47.467Z,85.26
2019-01-31T02:27:47.496Z,85.16
2019-01-31T02:28:47.542Z,85.05
2019-01-31T02:29:47.309Z,85.68
2019-01-31T02:30:47.282Z,86.20
2019-01-31T02:31:47.283Z,85.99
2019-01-31T02:32:47.524Z,85.16
2019-01-31T02:33:47.309Z,85.16
2019-01-31T02:34:47.625Z,85.36
2019-01-31T02:35:48.045Z,86.41
2019-01-31T02:36:47.387Z,86.20
2019-01-31T02:37:47.434Z,86.10
2019-01-31T02:38:47.310Z,86.10
2019-01-31T02:39:47.459Z,85.78
2019-01-31T02:40:47.855Z,85.58
2019-01-31T02:41:47.220Z,86.30
2019-01-31T02:42:47.264Z,86.20
2019-01-31T02:43:47.786Z,86.10
2019-01-31T02:44:47.267Z,85.16
2019-01-31T02:45:47.308Z,85.41
2019-01-31T02:46:47.496Z,85.36
2019-01-31T02:47:47.696Z,85.41
2019-01-31T02:48:47.539Z,86.24
2019-01-31T02:49:47.310Z,86.35
2019-01-31T02:50:47.558Z,85.58
2019-01-31T02:51:47.097Z,85.99
2019-01-31T02:52:47.112Z,86.10
2019-01-31T02:53:47.233Z,85.58
2019-01-31T02:54:47.105Z,85.99
2019-01-31T02:55:47.092Z,86.10
2019-01-31T02:56:47.087Z,85.99
2019-01-31T02:57:47.092Z,86.30
2019-01-31T02:58:47.151Z,85.26
2019-01-31T02:59:47.294Z,84.95
2019-01-31T03:00:47.079Z,84.64
2019-01-31T03:01:47.124Z,84.53
2019-01-31T03:02:47.389Z,85.16
2019-01-31T03:03:46.940Z,84.01
2019-01-31T03:04:46.944Z,85.05
2019-01-31T03:05:46.907Z,85.36
2019-01-31T03:06:47.018Z,84.74
2019-01-31T03:07:47.116Z,84.74
2019-01-31T03:08:46.928Z,85.51
2019-01-31T03:09:54.604Z,84.64
2019-01-31T03:10:48.083Z,84.74
2019-01-31T03:11:46.858Z,84.12
2019-01-31T03:12:46.861Z,83.91
2019-01-31T03:13:47.125Z,84.84
2019-01-31T03:14:47.014Z,84.95
2019-01-31T03:15:46.987Z,84.64
2019-01-31T03:16:46.839Z,84.43
2019-01-31T03:17:47.006Z,84.84
2019-01-31T03:18:47.056Z,84.01
2019-01-31T03:19:46.958Z,84.57
2019-01-31T03:20:46.782Z,84.22
2019-01-31T03:21:46.832Z,84.43
2019-01-31T03:22:46.837Z,84.43
2019-01-31T03:23:46.768Z,84.64
2019-01-31T03:24:46.866Z,85.16
2019-01-31T03:25:46.724Z,84.74
2019-01-31T03:26:46.886Z,84.33
2019-01-31T03:27:47.387Z,84.36
2019-01-31T03:28:46.798Z,84.74
2019-01-31T03:29:46.732Z,84.88
2019-01-31T03:30:46.856Z,85.30
2019-01-31T03:31:46.758Z,85.72
2019-01-31T03:32:47.527Z,86.35
2019-01-31T03:33:47.297Z,85.51
2019-01-31T03:34:46.689Z,85.20
2019-01-31T03:35:46.629Z,85.41
2019-01-31T03:36:46.573Z,85.10
2019-01-31T03:37:46.608Z,85.41
2019-01-31T03:38:46.647Z,85.10
2019-01-31T03:39:46.694Z,85.44
2019-01-31T03:40:46.552Z,85.65
2019-01-31T03:41:46.591Z,85.55
2019-01-31T03:42:46.525Z,85.86
2019-01-31T03:43:46.556Z,86.18
2019-01-31T03:44:46.768Z,86.18
2019-01-31T03:45:46.691Z,85.65
2019-01-31T03:46:46.681Z,85.55
2019-01-31T03:47:47.331Z,84.67
2019-01-31T03:48:46.500Z,84.67
2019-01-31T03:49:46.508Z,84.67
2019-01-31T03:50:46.812Z,84.40
2019-01-31T03:51:46.454Z,85.20
2019-01-31T03:52:46.758Z,85.51
2019-01-31T03:53:46.493Z,85.30
2019-01-31T03:54:46.789Z,84.57
2019-01-31T03:55:46.497Z,84.57
2019-01-31T03:56:46.472Z,84.88
2019-01-31T03:57:46.800Z,84.67
2019-01-31T03:58:46.915Z,84.67
2019-01-31T03:59:46.512Z,85.20
2019-01-31T04:00:46.949Z,84.88
2019-01-31T04:01:46.527Z,84.99
2019-01-31T04:02:46.514Z,84.47
2019-01-31T04:03:46.911Z,85.41
2019-01-31T04:04:46.344Z,84.78
2019-01-31T04:05:46.467Z,86.45
2019-01-31T04:06:46.532Z,86.55
2019-01-31T04:07:46.513Z,86.24
2019-01-31T04:08:46.535Z,84.99
2019-01-31T04:09:46.267Z,84.99
2019-01-31T04:10:46.288Z,85.20
2019-01-31T04:11:46.283Z,84.78
2019-01-31T04:12:46.188Z,84.88
2019-01-31T04:13:46.606Z,85.55
2019-01-31T04:14:46.312Z,85.55
2019-01-31T04:15:46.181Z,85.34
2019-01-31T04:16:46.323Z,85.65
2019-01-31T04:17:46.232Z,85.34
2019-01-31T04:18:46.641Z,85.44
2019-01-31T04:19:46.100Z,85.24
2019-01-31T04:20:46.154Z,85.44
2019-01-31T04:21:46.217Z,85.13
2019-01-31T04:22:46.121Z,85.76
2019-01-31T04:23:46.079Z,85.24
2019-01-31T04:24:46.057Z,85.13
2019-01-31T04:25:46.080Z,85.34
2019-01-31T04:26:46.053Z,85.65
2019-01-31T04:27:46.098Z,85.13
2019-01-31T04:28:46.091Z,85.44
2019-01-31T04:29:45.992Z,85.13
2019-01-31T04:30:46.077Z,85.44
2019-01-31T04:31:45.978Z,85.86
2019-01-31T04:32:46.224Z,85.86
2019-01-31T04:33:46.014Z,85.34
2019-01-31T04:34:45.934Z,84.82
2019-01-31T04:35:45.940Z,85.65
2019-01-31T04:36:45.937Z,84.92
2019-01-31T04:37:46.108Z,85.86
2019-01-31T04:38:46.108Z,85.59
2019-01-31T04:39:46.063Z,85.69
2019-01-31T04:40:45.968Z,85.59
2019-01-31T04:41:46.159Z,85.27
2019-01-31T04:42:45.905Z,85.34
2019-01-31T04:43:45.881Z,86.28
2019-01-31T04:44:45.890Z,85.76
2019-01-31T04:45:45.880Z,86.00
2019-01-31T04:46:45.905Z,85.86
2019-01-31T04:47:46.833Z,86.07
2019-01-31T04:48:46.345Z,85.44
2019-01-31T04:49:46.036Z,85.65
2019-01-31T04:50:45.851Z,86.18
2019-01-31T04:51:45.965Z,85.65
2019-01-31T04:52:45.776Z,86.38
2019-01-31T04:53:45.858Z,86.38
2019-01-31T04:54:46.154Z,86.07
2019-01-31T04:55:45.790Z,86.59
2019-01-31T04:56:45.693Z,86.21
2019-01-31T04:57:46.006Z,86.38
2019-01-31T04:58:45.930Z,86.38
2019-01-31T04:59:45.701Z,86.38
2019-01-31T05:00:46.650Z,85.55
2019-01-31T05:01:45.790Z,85.44
2019-01-31T05:02:45.800Z,85.49
2019-01-31T05:03:45.667Z,85.97
2019-01-31T05:04:45.725Z,86.21
2019-01-31T05:05:45.725Z,86.49
2019-01-31T05:06:45.629Z,85.76
2019-01-31T05:07:45.598Z,85.59
2019-01-31T05:08:45.717Z,85.69
2019-01-31T05:09:45.633Z,86.53
2019-01-31T05:10:45.997Z,86.84
2019-01-31T05:11:45.556Z,85.90
2019-01-31T05:12:45.625Z,85.44
2019-01-31T05:13:45.561Z,85.06
2019-01-31T05:14:45.538Z,85.59
2019-01-31T05:15:45.698Z,86.53
2019-01-31T05:16:45.895Z,86.11
2019-01-31T05:17:45.655Z,86.21
2019-01-31T05:18:45.951Z,85.34
2019-01-31T05:19:45.519Z,85.34
2019-01-31T05:20:45.451Z,84.72
2019-01-31T05:21:45.470Z,84.34
2019-01-31T05:22:45.621Z,85.69
2019-01-31T05:23:45.699Z,85.17
2019-01-31T05:24:45.480Z,85.17
2019-01-31T05:25:45.384Z,85.90
2019-01-31T05:26:45.433Z,86.00
2019-01-31T05:27:45.870Z,86.32
2019-01-31T05:28:45.373Z,86.11
2019-01-31T05:29:45.722Z,86.21
2019-01-31T05:30:45.907Z,86.21
2019-01-31T05:31:45.736Z,85.90
2019-01-31T05:32:46.028Z,85.90
2019-01-31T05:33:45.391Z,86.11
2019-01-31T05:34:46.222Z,86.11
2019-01-31T05:35:45.355Z,85.80
2019-01-31T05:36:45.356Z,85.63
2019-01-31T05:37:45.269Z,85.69
2019-01-31T05:38:45.429Z,85.94
2019-01-31T05:39:45.252Z,86.46
2019-01-31T05:40:55.261Z,86.74
2019-01-31T05:41:46.391Z,86.21
2019-01-31T05:42:45.201Z,86.32
2019-01-31T05:43:45.208Z,86.11
2019-01-31T05:44:45.217Z,85.59
2019-01-31T05:45:45.175Z,85.27
2019-01-31T05:46:45.157Z,85.27
2019-01-31T05:47:45.176Z,85.38
2019-01-31T05:48:45.396Z,85.49
2019-01-31T05:49:45.177Z,85.49
2019-01-31T05:50:45.182Z,85.59
2019-01-31T05:51:45.239Z,85.49
2019-01-31T05:52:46.177Z,85.49
2019-01-31T05:53:45.197Z,85.38
2019-01-31T05:54:45.166Z,86.43
2019-01-31T05:55:45.113Z,85.59
2019-01-31T05:56:45.160Z,85.38
2019-01-31T05:57:45.035Z,85.49
2019-01-31T05:58:45.783Z,86.11
2019-01-31T05:59:45.088Z,86.00
2019-01-31T06:00:45.020Z,86.11
2019-01-31T06:01:45.123Z,86.43
2019-01-31T06:02:45.124Z,86.84
2019-01-31T06:03:44.970Z,87.15
2019-01-31T06:04:45.313Z,85.80
2019-01-31T06:05:45.066Z,86.21
2019-01-31T06:06:45.049Z,85.59
2019-01-31T06:07:45.074Z,86.21
2019-01-31T06:08:44.922Z,86.43
2019-01-31T06:09:44.937Z,86.05
2019-01-31T06:10:44.899Z,86.46
2019-01-31T06:11:44.886Z,86.67
2019-01-31T06:12:45.036Z,87.15
2019-01-31T06:13:45.198Z,86.32
2019-01-31T06:14:44.968Z,85.69
2019-01-31T06:15:44.835Z,85.27
2019-01-31T06:16:45.078Z,85.49
2019-01-31T06:17:45.145Z,85.49
2019-01-31T06:18:44.915Z,85.27
2019-01-31T06:19:44.789Z,84.65
2019-01-31T06:20:44.899Z,85.17
2019-01-31T06:21:44.863Z,85.06
2019-01-31T06:22:44.783Z,84.65
2019-01-31T06:23:44.794Z,84.44
2019-01-31T06:24:44.881Z,84.23
2019-01-31T06:25:44.818Z,84.75
2019-01-31T06:26:44.869Z,84.02
2019-01-31T06:27:45.323Z,84.86
2019-01-31T06:28:44.748Z,84.23
2019-01-31T06:29:45.332Z,84.55
2019-01-31T06:30:44.680Z,84.65
2019-01-31T06:31:44.661Z,84.02
2019-01-31T06:32:44.756Z,84.12
2019-01-31T06:33:44.785Z,84.55
2019-01-31T06:34:44.649Z,85.06
2019-01-31T06:35:44.671Z,84.86
2019-01-31T06:36:44.863Z,84.34
2019-01-31T06:37:44.595Z,84.86
2019-01-31T06:38:44.643Z,84.55
2019-01-31T06:39:45.094Z,84.55
2019-01-31T06:40:44.598Z,85.27
2019-01-31T06:41:44.564Z,85.38
2019-01-31T06:42:44.839Z,85.27
2019-01-31T06:43:44.532Z,85.73
2019-01-31T06:44:44.531Z,84.75
2019-01-31T06:45:44.562Z,85.17
2019-01-31T06:46:44.494Z,85.06
2019-01-31T06:47:44.495Z,83.88
2019-01-31T06:48:44.485Z,82.73
2019-01-31T06:49:44.464Z,82.73
2019-01-31T06:50:44.472Z,82.70
2019-01-31T06:51:44.451Z,82.80
2019-01-31T06:52:44.505Z,82.48
2019-01-31T06:53:44.419Z,82.90
2019-01-31T06:54:44.410Z,82.80
2019-01-31T06:55:45.172Z,82.38
2019-01-31T06:56:44.395Z,82.38
2019-01-31T06:57:44.390Z,82.55
2019-01-31T06:58:44.413Z,82.48
2019-01-31T06:59:47.522Z,82.38
2019-01-31T07:00:44.364Z,82.90
2019-01-31T07:01:44.534Z,83.01
2019-01-31T07:02:44.558Z,82.48
2019-01-31T07:03:44.529Z,82.59
2019-01-31T07:04:44.356Z,83.01
2019-01-31T07:05:45.206Z,82.59
2019-01-31T07:06:44.417Z,82.55
2019-01-31T07:07:44.268Z,82.76
2019-01-31T07:08:44.319Z,82.55
2019-01-31T07:09:44.414Z,82.45
2019-01-31T07:10:44.655Z,82.82
2019-01-31T07:11:44.545Z,82.31
2019-01-31T07:12:44.628Z,81.05
2019-01-31T07:13:44.231Z,81.75
2019-01-31T07:14:44.406Z,81.33
2019-01-31T07:15:44.177Z,80.77
2019-01-31T07:16:44.632Z,81.02
2019-01-31T07:17:44.175Z,81.02
2019-01-31T07:18:44.250Z,81.12
2019-01-31T07:19:44.223Z,81.40
2019-01-31T07:20:44.143Z,80.91
2019-01-31T07:21:44.114Z,81.12
2019-01-31T07:22:44.303Z,81.43
2019-01-31T07:23:46.029Z,81.43
2019-01-31T07:24:44.185Z,82.06
2019-01-31T07:25:44.295Z,82.58
2019-01-31T07:26:44.084Z,82.37
2019-01-31T07:27:44.466Z,81.65
2019-01-31T07:28:44.460Z,82.06
2019-01-31T07:29:44.118Z,82.41
2019-01-31T07:30:44.026Z,82.87
2019-01-31T07:31:44.184Z,84.12
2019-01-31T07:32:44.111Z,83.80
2019-01-31T07:33:44.455Z,84.01
2019-01-31T07:34:44.013Z,84.99
2019-01-31T07:35:44.157Z,84.67
2019-01-31T07:36:44.396Z,84.47
2019-01-31T07:37:43.931Z,84.67
2019-01-31T07:38:44.211Z,85.41
2019-01-31T07:39:44.531Z,84.36
2019-01-31T07:40:44.121Z,84.61
2019-01-31T07:41:43.953Z,83.84
2019-01-31T07:42:44.060Z,84.78
2019-01-31T07:43:46.701Z,84.84
2019-01-31T07:44:44.432Z,85.16
2019-01-31T07:45:44.081Z,84.84
2019-01-31T07:46:44.170Z,84.95
2019-01-31T07:47:43.837Z,85.02
2019-01-31T07:48:44.087Z,84.60
2019-01-31T07:49:43.809Z,84.60
2019-01-31T07:50:43.866Z,84.70
2019-01-31T07:51:43.779Z,84.60
2019-01-31T07:52:43.774Z,83.25
2019-01-31T07:53:44.084Z,83.35
2019-01-31T07:54:43.777Z,83.76
2019-01-31T07:55:43.757Z,83.97
2019-01-31T07:56:43.743Z,83.87
2019-01-31T07:57:44.223Z,83.31
2019-01-31T07:58:43.834Z,82.89
2019-01-31T07:59:44.113Z,82.37
2019-01-31T08:00:43.840Z,82.27
2019-01-31T08:01:43.809Z,82.48
2019-01-31T08:02:43.867Z,82.06
2019-01-31T08:03:43.767Z,82.68
2019-01-31T08:04:43.644Z,83.42
2019-01-31T08:05:43.625Z,83.83
2019-01-31T08:06:43.873Z,84.35
2019-01-31T08:07:43.617Z,83.42
2019-01-31T08:08:43.619Z,83.10
2019-01-31T08:09:43.751Z,83.20
2019-01-31T08:10:43.878Z,82.89
2019-01-31T08:11:52.631Z,82.34
2019-01-31T08:12:44.665Z,82.48
2019-01-31T08:13:43.762Z,82.54
2019-01-31T08:14:43.710Z,82.44
2019-01-31T08:15:43.711Z,83.17
2019-01-31T08:16:43.509Z,82.54
2019-01-31T08:17:43.920Z,82.34
2019-01-31T08:18:43.546Z,82.48
2019-01-31T08:19:43.472Z,82.54
2019-01-31T08:20:43.514Z,82.75
2019-01-31T08:21:43.511Z,82.48
2019-01-31T08:22:43.520Z,82.79
2019-01-31T08:23:43.480Z,82.79
2019-01-31T08:24:43.895Z,83.00
2019-01-31T08:25:43.605Z,83.31
2019-01-31T08:26:43.417Z,83.10
2019-01-31T08:27:43.433Z,83.83
2019-01-31T08:28:43.377Z,84.39
2019-01-31T08:29:43.853Z,83.62
2019-01-31T08:30:43.401Z,83.83
2019-01-31T08:31:43.345Z,84.45
2019-01-31T08:32:43.372Z,84.50
2019-01-31T08:33:43.402Z,84.98
2019-01-31T08:34:43.545Z,84.56
2019-01-31T08:35:43.517Z,84.87
2019-01-31T08:36:43.367Z,84.66
2019-01-31T08:37:43.454Z,84.87
2019-01-31T08:38:43.290Z,84.66
2019-01-31T08:39:43.376Z,84.66
2019-01-31T08:40:43.490Z,84.66
2019-01-31T08:41:43.295Z,84.35
2019-01-31T08:42:43.230Z,84.66
2019-01-31T08:43:43.215Z,85.02
2019-01-31T08:44:43.225Z,84.91
2019-01-31T08:45:43.192Z,85.33
2019-01-31T08:46:43.234Z,85.12
2019-01-31T08:47:43.213Z,85.43
2019-01-31T08:48:43.220Z,84.50
2019-01-31T08:49:43.158Z,85.53
2019-01-31T08:50:43.288Z,85.02
2019-01-31T08:51:43.177Z,85.33
2019-01-31T08:52:43.251Z,85.12
2019-01-31T08:53:43.250Z,85.33
2019-01-31T08:54:43.224Z,84.81
2019-01-31T08:55:43.173Z,85.22
2019-01-31T08:56:43.169Z,86.16
2019-01-31T08:57:43.082Z,86.27
2019-01-31T08:58:43.101Z,85.96
2019-01-31T08:59:43.081Z,86.27
2019-01-31T09:00:43.080Z,86.27
2019-01-31T09:01:43.018Z,86.27
2019-01-31T09:02:43.031Z,86.30
2019-01-31T09:03:43.023Z,86.20
2019-01-31T09:04:43.034Z,85.58
2019-01-31T09:05:43.386Z,86.41
2019-01-31T09:06:42.953Z,86.30
2019-01-31T09:07:42.968Z,86.51
2019-01-31T09:08:43.200Z,86.51
2019-01-31T09:09:42.939Z,86.20
2019-01-31T09:10:42.979Z,86.27
2019-01-31T09:11:42.940Z,86.27
2019-01-31T09:12:42.990Z,86.79
2019-01-31T09:13:42.879Z,85.74
2019-01-31T09:14:42.906Z,86.06
2019-01-31T09:15:42.890Z,86.37
2019-01-31T09:16:42.904Z,85.53
2019-01-31T09:17:43.110Z,86.06
2019-01-31T09:18:42.917Z,85.22
2019-01-31T09:19:42.876Z,85.02
2019-01-31T09:20:42.839Z,85.02
2019-01-31T09:21:42.828Z,85.02
2019-01-31T09:22:43.018Z,85.12
2019-01-31T09:23:42.780Z,85.22
2019-01-31T09:24:42.837Z,85.02
2019-01-31T09:25:42.749Z,85.22
2019-01-31T09:26:42.811Z,85.02
2019-01-31T09:27:43.022Z,85.02
2019-01-31T09:28:42.757Z,87.10
2019-01-31T09:29:45.109Z,86.06
2019-01-31T09:30:42.718Z,85.02
2019-01-31T09:31:42.691Z,85.33
2019-01-31T09:32:42.708Z,85.50
2019-01-31T09:33:42.769Z,85.22
2019-01-31T09:34:42.736Z,85.43
2019-01-31T09:35:42.671Z,85.53
2019-01-31T09:36:42.652Z,85.96
2019-01-31T09:37:42.667Z,85.74
2019-01-31T09:38:42.649Z,85.96
2019-01-31T09:39:42.847Z,90.29
2019-01-31T09:40:42.673Z,89.31
2019-01-31T09:41:42.595Z,85.69
2019-01-31T09:42:42.580Z,86.83
2019-01-31T09:43:42.708Z,88.87
2019-01-31T09:44:42.691Z,84.70
2019-01-31T09:45:42.564Z,80.94
2019-01-31T09:46:42.558Z,84.82
2019-01-31T09:47:42.508Z,87.40
2019-01-31T09:48:42.505Z,93.66
2019-01-31T09:49:42.547Z,94.89
2019-01-31T09:50:42.524Z,86.36
2019-01-31T09:51:42.502Z,80.74
2019-01-31T09:52:42.538Z,78.06
2019-01-31T09:53:42.487Z,79.38
2019-01-31T09:54:42.434Z,81.35
2019-01-31T09:55:42.424Z,84.00
2019-01-31T09:56:42.452Z,79.79
2019-01-31T09:57:42.490Z,80.66
2019-01-31T09:58:42.514Z,80.52
2019-01-31T09:59:42.454Z,83.23
2019-01-31T10:00:42.387Z,84.14
2019-01-31T10:01:42.356Z,86.30
2019-01-31T10:02:42.498Z,88.12
2019-01-31T10:03:42.418Z,89.16
2019-01-31T10:04:42.407Z,89.68
2019-01-31T10:05:42.713Z,89.62
2019-01-31T10:06:42.396Z,90.25
2019-01-31T10:07:42.314Z,90.00
2019-01-31T10:08:42.302Z,90.14
2019-01-31T10:09:42.535Z,90.25
2019-01-31T10:10:42.380Z,90.97
2019-01-31T10:11:42.344Z,91.04
2019-01-31T10:12:42.269Z,90.62
2019-01-31T10:13:42.292Z,90.41
2019-01-31T10:14:42.253Z,90.31
2019-01-31T10:15:42.278Z,90.31
2019-01-31T10:16:42.369Z,90.16
2019-01-31T10:17:42.192Z,90.47
2019-01-31T10:18:42.271Z,88.91
2019-01-31T10:19:42.196Z,89.64
2019-01-31T10:20:42.185Z,89.39
2019-01-31T10:21:42.135Z,89.22
2019-01-31T10:22:42.305Z,89.54
2019-01-31T10:23:42.194Z,89.95
2019-01-31T10:24:42.297Z,90.41
2019-01-31T10:25:42.099Z,90.37
2019-01-31T10:26:42.306Z,90.58
2019-01-31T10:27:42.082Z,89.18
2019-01-31T10:28:42.116Z,88.81
2019-01-31T10:29:42.122Z,88.91
2019-01-31T10:30:42.114Z,89.43
2019-01-31T10:31:42.056Z,89.75
2019-01-31T10:32:42.064Z,89.75
2019-01-31T10:33:42.077Z,89.64
2019-01-31T10:34:42.052Z,90.06
2019-01-31T10:35:42.005Z,90.01
2019-01-31T10:36:42.062Z,89.50
2019-01-31T10:37:41.977Z,89.14
2019-01-31T10:38:41.966Z,88.42
2019-01-31T10:39:41.935Z,88.20
2019-01-31T10:40:41.994Z,88.17
2019-01-31T10:41:41.982Z,87.89
2019-01-31T10:42:49.431Z,89.14
2019-01-31T10:43:42.900Z,92.02
2019-01-31T10:44:41.887Z,90.52
2019-01-31T10:45:41.936Z,90.47
2019-01-31T10:46:41.866Z,88.10
2019-01-31T10:47:41.849Z,85.59
2019-01-31T10:48:41.843Z,87.66
2019-01-31T10:49:41.845Z,86.35
2019-01-31T10:50:41.832Z,87.12
2019-01-31T10:51:41.904Z,87.58
2019-01-31T10:52:41.925Z,88.83
2019-01-31T10:53:41.840Z,88.17
2019-01-31T10:54:41.808Z,88.62
2019-01-31T10:55:41.896Z,87.96
2019-01-31T10:56:44.337Z,88.68
2019-01-31T10:57:41.740Z,87.96
2019-01-31T10:58:41.728Z,87.50
2019-01-31T10:59:41.723Z,86.98
2019-01-31T11:00:41.710Z,87.19
2019-01-31T11:01:41.732Z,87.46
2019-01-31T11:02:41.731Z,87.29
2019-01-31T11:03:41.705Z,87.40
2019-01-31T11:04:41.730Z,86.94
2019-01-31T11:05:41.695Z,87.56
2019-01-31T11:06:41.668Z,87.21
2019-01-31T11:07:41.659Z,86.52
2019-01-31T11:08:41.691Z,87.04
2019-01-31T11:09:41.612Z,87.08
2019-01-31T11:10:41.605Z,87.71
2019-01-31T11:11:41.593Z,86.91
2019-01-31T11:12:41.604Z,87.40
2019-01-31T11:13:41.611Z,87.65
2019-01-31T11:14:41.571Z,88.27
2019-01-31T11:15:41.559Z,89.00
2019-01-31T11:16:41.550Z,89.20
2019-01-31T11:17:41.522Z,88.83
2019-01-31T11:18:41.534Z,89.76
2019-01-31T11:19:41.495Z,89.62
2019-01-31T11:20:41.486Z,90.25
2019-01-31T11:21:41.497Z,89.52
2019-01-31T11:22:41.577Z,89.27
2019-01-31T11:23:41.511Z,88.64
2019-01-31T11:24:41.469Z,88.50
2019-01-31T11:25:41.439Z,87.77
2019-01-31T11:26:41.418Z,87.66
2019-01-31T11:27:41.432Z,87.66
2019-01-31T11:28:41.398Z,87.50
2019-01-31T11:29:41.398Z,88.12
2019-01-31T11:30:41.385Z,88.17
2019-01-31T11:31:41.373Z,88.79
2019-01-31T11:32:41.423Z,88.89
2019-01-31T11:33:41.369Z,89.98
2019-01-31T11:34:41.429Z,90.50
2019-01-31T11:35:41.331Z,89.76
2019-01-31T11:36:41.386Z,89.45
2019-01-31T11:37:41.310Z,89.35
2019-01-31T11:38:41.344Z,90.39
2019-01-31T11:39:41.414Z,90.29
2019-01-31T11:40:41.269Z,90.60
2019-01-31T11:41:41.335Z,90.08
2019-01-31T11:42:41.280Z,89.14
2019-01-31T11:43:41.246Z,88.62
2019-01-31T11:44:41.246Z,89.56
2019-01-31T11:45:41.240Z,88.93
2019-01-31T11:46:41.211Z,91.02
2019-01-31T11:47:41.213Z,90.70
2019-01-31T11:48:41.217Z,90.50
2019-01-31T11:49:41.164Z,90.50
2019-01-31T11:50:41.249Z,90.70
2019-01-31T11:51:41.149Z,91.12
2019-01-31T11:52:41.182Z,90.75
2019-01-31T11:53:41.140Z,91.75
2019-01-31T11:54:41.122Z,90.91
2019-01-31T11:55:41.172Z,90.19
2019-01-31T11:56:41.133Z,90.70
2019-01-31T11:57:41.099Z,90.91
2019-01-31T11:58:41.081Z,90.19
2019-01-31T11:59:41.054Z,90.91
2019-01-31T12:00:41.072Z,91.12
2019-01-31T12:01:41.038Z,90.50
2019-01-31T12:02:41.045Z,90.50
2019-01-31T12:03:41.030Z,91.02
2019-01-31T12:04:41.013Z,91.53
2019-01-31T12:05:41.028Z,91.53
2019-01-31T12:06:40.991Z,91.22
2019-01-31T12:07:41.164Z,91.75
2019-01-31T12:08:40.957Z,91.43
2019-01-31T12:09:41.004Z,91.22
2019-01-31T12:10:41.019Z,91.64
2019-01-31T12:11:40.931Z,91.33
2019-01-31T12:12:43.729Z,91.22
2019-01-31T12:13:40.934Z,90.91
2019-01-31T12:14:40.899Z,91.12
2019-01-31T12:15:40.894Z,91.12
2019-01-31T12:16:41.057Z,91.33
2019-01-31T12:17:40.879Z,92.02
2019-01-31T12:18:40.914Z,91.96
2019-01-31T12:19:40.851Z,91.22
2019-01-31T12:20:40.831Z,90.19
2019-01-31T12:21:40.859Z,91.18
2019-01-31T12:22:40.835Z,90.81
2019-01-31T12:23:40.794Z,90.66
2019-01-31T12:24:40.805Z,90.50
2019-01-31T12:25:40.786Z,90.56
2019-01-31T12:26:40.759Z,91.18
2019-01-31T12:27:40.775Z,91.33
2019-01-31T12:28:40.752Z,91.81
2019-01-31T12:29:40.729Z,90.66
2019-01-31T12:30:40.734Z,90.50
2019-01-31T12:31:40.715Z,90.87
2019-01-31T12:32:40.710Z,90.56
2019-01-31T12:33:40.683Z,90.97
2019-01-31T12:34:43.109Z,91.60
2019-01-31T12:35:40.675Z,91.18
2019-01-31T12:36:40.656Z,90.77
2019-01-31T12:37:40.654Z,90.39
2019-01-31T12:38:40.696Z,90.87
2019-01-31T12:39:40.638Z,90.77
2019-01-31T12:40:40.619Z,90.39
2019-01-31T12:41:40.604Z,90.08
2019-01-31T12:42:40.617Z,90.77
2019-01-31T12:43:40.596Z,90.45
2019-01-31T12:44:40.570Z,91.08
2019-01-31T12:45:40.611Z,91.28
2019-01-31T12:46:40.546Z,91.28
2019-01-31T12:47:40.547Z,91.28
2019-01-31T12:48:40.531Z,90.77
2019-01-31T12:49:40.571Z,90.66
2019-01-31T12:50:40.509Z,90.87
2019-01-31T12:51:40.495Z,91.28
2019-01-31T12:52:40.478Z,91.28